Wetterdaten: Samstag, 22.04.2017
Datum Zeit Temp. Auen Feucht Auen Luftdruck Regen Richtung Richtung Windben
22.04.2017 00:00 -0,4 C 89 % 1028,6 hPa 0,0 mm W 277 3,2 km/h (1 Bft)
22.04.2017 00:05 -0,2 C 90 % 1028,5 hPa 0,0 mm W 277 1,6 km/h (1 Bft)
22.04.2017 00:10 -0,2 C 90 % 1028,5 hPa 0,0 mm W 277 4,8 km/h (1 Bft)
22.04.2017 00:15 -0,3 C 90 % 1028,5 hPa 0,0 mm W 277 0,0 km/h (0 Bft)
22.04.2017 00:20 -0,3 C 90 % 1028,5 hPa 0,0 mm W 277 1,6 km/h (1 Bft)
22.04.2017 00:25 -0,3 C 90 % 1028,4 hPa 0,0 mm W 277 0,0 km/h (0 Bft)
22.04.2017 00:30 -0,4 C 90 % 1028,4 hPa 0,0 mm W 277 0,0 km/h (0 Bft)
22.04.2017 00:35 -0,3 C 91 % 1028,4 hPa 0,0 mm W 277 0,0 km/h (0 Bft)
22.04.2017 00:40 -0,3 C 90 % 1028,3 hPa 0,0 mm W 277 0,0 km/h (0 Bft)
22.04.2017 00:45 -0,5 C 90 % 1028,3 hPa 0,0 mm W 277 0,0 km/h (0 Bft)
22.04.2017 00:50 -0,4 C 91 % 1028,3 hPa 0,0 mm W 277 0,0 km/h (0 Bft)
22.04.2017 00:55 -0,3 C 91 % 1028,3 hPa 0,0 mm W 277 1,6 km/h (1 Bft)
22.04.2017 01:00 -0,3 C 91 % 1028,2 hPa 0,0 mm W 277 0,0 km/h (0 Bft)
22.04.2017 01:05 -0,3 C 91 % 1028,2 hPa 0,0 mm W 277 0,0 km/h (0 Bft)
22.04.2017 01:10 -0,2 C 91 % 1028,1 hPa 0,0 mm W 277 0,0 km/h (0 Bft)
22.04.2017 01:15 -0,2 C 91 % 1028,1 hPa 0,0 mm W 277 0,0 km/h (0 Bft)
22.04.2017 01:20 -0,1 C 91 % 1028,0 hPa 0,0 mm W 277 0,0 km/h (0 Bft)
22.04.2017 01:25 0,1 C 91 % 1027,9 hPa 0,0 mm W 277 0,0 km/h (0 Bft)
22.04.2017 01:30 0,2 C 91 % 1027,9 hPa 0,0 mm W 277 0,0 km/h (0 Bft)
22.04.2017 01:35 0,3 C 91 % 1027,8 hPa 0,0 mm W 277 0,0 km/h (0 Bft)
22.04.2017 01:40 0,3 C 91 % 1027,8 hPa 0,0 mm W 277 1,6 km/h (1 Bft)
22.04.2017 01:45 0,4 C 91 % 1027,8 hPa 0,0 mm W 277 3,2 km/h (1 Bft)
22.04.2017 01:50 0,7 C 91 % 1027,7 hPa 0,0 mm W 277 3,2 km/h (1 Bft)
22.04.2017 01:55 0,9 C 91 % 1027,7 hPa 0,0 mm W 277 1,6 km/h (1 Bft)
22.04.2017 02:00 0,8 C 90 % 1027,7 hPa 0,0 mm W 277 3,2 km/h (1 Bft)
22.04.2017 02:05 0,9 C 91 % 1027,6 hPa 0,0 mm W 277 0,0 km/h (0 Bft)
22.04.2017 02:10 1,1 C 91 % 1027,6 hPa 0,0 mm W 277 1,6 km/h (1 Bft)
22.04.2017 02:15 1,1 C 90 % 1027,4 hPa 0,0 mm W 277 0,0 km/h (0 Bft)
22.04.2017 02:20 1,0 C 90 % 1027,4 hPa 0,0 mm W 277 4,8 km/h (1 Bft)
22.04.2017 02:25 1,1 C 90 % 1027,3 hPa 0,0 mm W 277 3,2 km/h (1 Bft)
22.04.2017 02:30 1,2 C 90 % 1027,2 hPa 0,0 mm W 277 1,6 km/h (1 Bft)
22.04.2017 02:35 1,3 C 90 % 1027,2 hPa 0,0 mm W 277 1,6 km/h (1 Bft)
22.04.2017 02:40 1,4 C 90 % 1027,1 hPa 0,0 mm W 277 0,0 km/h (0 Bft)
22.04.2017 02:45 1,4 C 90 % 1027,0 hPa 0,0 mm W 277 0,0 km/h (0 Bft)
22.04.2017 02:50 1,6 C 90 % 1026,9 hPa 0,0 mm W 277 1,6 km/h (1 Bft)
22.04.2017 02:55 1,6 C 89 % 1026,8 hPa 0,0 mm W 277 0,0 km/h (0 Bft)
22.04.2017 03:00 1,6 C 90 % 1026,8 hPa 0,0 mm W 277 0,0 km/h (0 Bft)
22.04.2017 03:05 1,5 C 90 % 1026,7 hPa 0,0 mm W 277 1,6 km/h (1 Bft)
22.04.2017 03:10 1,6 C 90 % 1026,7 hPa 0,0 mm W 277 1,6 km/h (1 Bft)
22.04.2017 03:15 1,7 C 90 % 1026,6 hPa 0,0 mm W 277 1,6 km/h (1 Bft)
22.04.2017 03:20 1,8 C 90 % 1026,6 hPa 0,0 mm W 277 0,0 km/h (0 Bft)
22.04.2017 03:25 1,8 C 90 % 1026,6 hPa 0,0 mm W 277 0,0 km/h (0 Bft)
22.04.2017 03:30 1,8 C 90 % 1026,5 hPa 0,0 mm W 277 0,0 km/h (0 Bft)
22.04.2017 03:35 1,9 C 89 % 1026,4 hPa 0,0 mm W 277 0,0 km/h (0 Bft)
22.04.2017 03:40 2,0 C 89 % 1026,4 hPa 0,0 mm W 277 0,0 km/h (0 Bft)
22.04.2017 03:45 2,0 C 89 % 1026,3 hPa 0,0 mm W 277 0,0 km/h (0 Bft)
22.04.2017 03:50 1,9 C 89 % 1026,3 hPa 0,0 mm W 277 0,0 km/h (0 Bft)
22.04.2017 03:55 2,0 C 89 % 1026,3 hPa 0,0 mm W 277 4,8 km/h (1 Bft)
22.04.2017 04:00 2,1 C 89 % 1026,2 hPa 0,0 mm W 277 0,0 km/h (0 Bft)
22.04.2017 04:05 2,1 C 89 % 1026,1 hPa 0,0 mm W 277 1,6 km/h (1 Bft)
22.04.2017 04:10 2,1 C 89 % 1026,0 hPa 0,0 mm W 277 1,6 km/h (1 Bft)
22.04.2017 04:15 2,1 C 90 % 1025,9 hPa 0,0 mm W 277 0,0 km/h (0 Bft)
22.04.2017 04:20 2,2 C 89 % 1025,9 hPa 0,0 mm W 277 0,0 km/h (0 Bft)
22.04.2017 04:25 2,3 C 89 % 1025,8 hPa 0,0 mm W 277 0,0 km/h (0 Bft)
22.04.2017 04:30 2,2 C 89 % 1025,7 hPa 0,0 mm W 277 0,0 km/h (0 Bft)
22.04.2017 04:35 2,2 C 89 % 1025,7 hPa 0,0 mm W 277 0,0 km/h (0 Bft)
22.04.2017 04:40 2,2 C 90 % 1025,6 hPa 0,0 mm W 277 0,0 km/h (0 Bft)
22.04.2017 04:45 2,2 C 90 % 1025,5 hPa 0,0 mm W 277 0,0 km/h (0 Bft)
22.04.2017 04:50 2,2 C 90 % 1025,6 hPa 0,0 mm W 277 0,0 km/h (0 Bft)
22.04.2017 04:55 2,1 C 90 % 1025,5 hPa 0,0 mm W 277 0,0 km/h (0 Bft)
22.04.2017 05:00 2,1 C 90 % 1025,4 hPa 0,0 mm W 277 0,0 km/h (0 Bft)
22.04.2017 05:05 2,0 C 90 % 1025,4 hPa 0,0 mm W 277 0,0 km/h (0 Bft)
22.04.2017 05:10 1,9 C 90 % 1025,4 hPa 0,0 mm W 277 0,0 km/h (0 Bft)
22.04.2017 05:15 2,0 C 90 % 1025,4 hPa 0,0 mm W 277 0,0 km/h (0 Bft)
22.04.2017 05:20 1,8 C 90 % 1025,2 hPa 0,0 mm W 277 0,0 km/h (0 Bft)
22.04.2017 05:25 1,6 C 90 % 1025,3 hPa 0,0 mm W 277 0,0 km/h (0 Bft)
22.04.2017 05:30 1,5 C 90 % 1025,2 hPa 0,0 mm W 277 0,0 km/h (0 Bft)
22.04.2017 05:35 1,3 C 91 % 1025,3 hPa 0,0 mm W 277 3,2 km/h (1 Bft)
22.04.2017 05:40 1,2 C 91 % 1025,2 hPa 0,0 mm W 277 1,6 km/h (1 Bft)
22.04.2017 05:45 1,2 C 91 % 1025,1 hPa 0,0 mm W 277 1,6 km/h (1 Bft)
22.04.2017 05:50 1,1 C 91 % 1025,1 hPa 0,0 mm W 277 0,0 km/h (0 Bft)
22.04.2017 05:55 0,9 C 91 % 1025,1 hPa 0,0 mm W 277 0,0 km/h (0 Bft)
22.04.2017 06:00 0,7 C 91 % 1025,1 hPa 0,0 mm W 277 0,0 km/h (0 Bft)
22.04.2017 06:05 0,6 C 91 % 1025,1 hPa 0,0 mm W 277 0,0 km/h (0 Bft)
22.04.2017 06:10 0,5 C 92 % 1025,0 hPa 0,0 mm W 277 0,0 km/h (0 Bft)
22.04.2017 06:15 0,4 C 92 % 1025,1 hPa 0,0 mm W 277 0,0 km/h (0 Bft)
22.04.2017 06:20 0,4 C 92 % 1025,0 hPa 0,0 mm W 277 0,0 km/h (0 Bft)
22.04.2017 06:25 0,4 C 92 % 1024,9 hPa 0,0 mm W 277 0,0 km/h (0 Bft)
22.04.2017 06:30 0,2 C 92 % 1024,9 hPa 0,0 mm W 277 0,0 km/h (0 Bft)
22.04.2017 06:35 0,3 C 92 % 1025,0 hPa 0,0 mm W 277 0,0 km/h (0 Bft)
22.04.2017 06:40 0,3 C 92 % 1024,9 hPa 0,0 mm W 277 0,0 km/h (0 Bft)
22.04.2017 06:45 0,4 C 92 % 1025,0 hPa 0,0 mm W 277 0,0 km/h (0 Bft)
22.04.2017 06:50 0,7 C 93 % 1025,0 hPa 0,0 mm W 277 0,0 km/h (0 Bft)
22.04.2017 06:55 0,9 C 93 % 1024,9 hPa 0,0 mm W 277 0,0 km/h (0 Bft)
22.04.2017 07:00 0,9 C 92 % 1024,9 hPa 0,0 mm W 277 0,0 km/h (0 Bft)
22.04.2017 07:05 1,1 C 92 % 1024,9 hPa 0,0 mm W 277 1,6 km/h (1 Bft)
22.04.2017 07:10 1,3 C 92 % 1024,9 hPa 0,0 mm W 277 0,0 km/h (0 Bft)
22.04.2017 07:15 1,3 C 92 % 1024,8 hPa 0,0 mm W 277 0,0 km/h (0 Bft)
22.04.2017 07:20 1,8 C 92 % 1024,8 hPa 0,0 mm W 277 0,0 km/h (0 Bft)
22.04.2017 07:25 2,4 C 92 % 1024,8 hPa 0,0 mm W 277 0,0 km/h (0 Bft)
22.04.2017 07:30 2,7 C 90 % 1024,7 hPa 0,0 mm W 277 0,0 km/h (0 Bft)
22.04.2017 07:35 2,5 C 90 % 1024,7 hPa 0,0 mm W 277 0,0 km/h (0 Bft)
22.04.2017 07:40 2,6 C 90 % 1024,7 hPa 0,0 mm W 277 0,0 km/h (0 Bft)
22.04.2017 07:45 2,9 C 91 % 1024,7 hPa 0,0 mm W 277 0,0 km/h (0 Bft)
22.04.2017 07:50 3,3 C 90 % 1024,7 hPa 0,0 mm W 277 0,0 km/h (0 Bft)
22.04.2017 07:55 3,8 C 89 % 1024,7 hPa 0,0 mm W 277 0,0 km/h (0 Bft)
22.04.2017 08:00 4,3 C 88 % 1024,7 hPa 0,0 mm W 277 0,0 km/h (0 Bft)
22.04.2017 08:05 4,5 C 85 % 1024,7 hPa 0,0 mm W 277 0,0 km/h (0 Bft)
22.04.2017 08:10 4,3 C 84 % 1024,7 hPa 0,0 mm W 277 0,0 km/h (0 Bft)
22.04.2017 08:15 4,2 C 84 % 1024,6 hPa 0,0 mm W 277 1,6 km/h (1 Bft)
22.04.2017 08:20 4,6 C 86 % 1024,5 hPa 0,0 mm W 277 0,0 km/h (0 Bft)
22.04.2017 08:25 4,8 C 85 % 1024,4 hPa 0,0 mm W 277 1,6 km/h (1 Bft)
22.04.2017 08:30 5,1 C 85 % 1024,4 hPa 0,0 mm W 277 0,0 km/h (0 Bft)
22.04.2017 08:35 5,0 C 84 % 1024,4 hPa 0,0 mm W 277 0,0 km/h (0 Bft)
22.04.2017 08:40 5,2 C 85 % 1024,2 hPa 0,0 mm W 277 3,2 km/h (1 Bft)
22.04.2017 08:45 5,3 C 85 % 1024,3 hPa 0,0 mm W 277 3,2 km/h (1 Bft)
22.04.2017 08:50 5,5 C 86 % 1024,3 hPa 0,0 mm W 277 1,6 km/h (1 Bft)
22.04.2017 08:55 5,6 C 85 % 1024,2 hPa 0,0 mm SO 146 4,8 km/h (1 Bft)
22.04.2017 09:00 5,7 C 85 % 1024,1 hPa 0,0 mm O-SO 109 4,8 km/h (1 Bft)
22.04.2017 09:05 5,8 C 84 % 1024,0 hPa 0,0 mm O-SO 109 4,8 km/h (1 Bft)
22.04.2017 09:10 6,1 C 83 % 1023,9 hPa 0,0 mm O-SO 109 3,2 km/h (1 Bft)
22.04.2017 09:15 6,4 C 84 % 1023,8 hPa 0,0 mm O-SO 109 3,2 km/h (1 Bft)
22.04.2017 09:20 6,6 C 83 % 1023,8 hPa 0,0 mm O-SO 109 3,2 km/h (1 Bft)
22.04.2017 09:25 6,9 C 84 % 1023,8 hPa 0,0 mm O-SO 109 1,6 km/h (1 Bft)
22.04.2017 09:30 7,1 C 83 % 1023,8 hPa 0,0 mm O-SO 109 1,6 km/h (1 Bft)
22.04.2017 09:35 7,7 C 81 % 1023,7 hPa 0,0 mm W 277 9,7 km/h (2 Bft)
22.04.2017 09:40 9,0 C 64 % 1023,6 hPa 0,0 mm W 264 9,7 km/h (2 Bft)
22.04.2017 09:45 9,4 C 60 % 1023,6 hPa 0,0 mm W-NW 300 11,3 km/h (2 Bft)
22.04.2017 09:50 9,8 C 60 % 1023,6 hPa 0,0 mm W-NW 282 14,5 km/h (3 Bft)
22.04.2017 09:55 9,8 C 59 % 1023,6 hPa 0,0 mm W 267 9,7 km/h (2 Bft)
22.04.2017 10:00 9,8 C 56 % 1023,5 hPa 0,0 mm W 277 9,7 km/h (2 Bft)
22.04.2017 10:05 9,7 C 54 % 1023,5 hPa 0,0 mm W 266 12,9 km/h (3 Bft)
22.04.2017 10:10 9,8 C 55 % 1023,4 hPa 0,0 mm W 274 8,0 km/h (2 Bft)
22.04.2017 10:15 9,9 C 54 % 1023,4 hPa 0,0 mm W 263 12,9 km/h (3 Bft)
22.04.2017 10:20 10,1 C 56 % 1023,4 hPa 0,0 mm W 267 9,7 km/h (2 Bft)
22.04.2017 10:25 10,1 C 55 % 1023,4 hPa 0,0 mm W 270 12,9 km/h (3 Bft)
22.04.2017 10:30 10,2 C 57 % 1023,4 hPa 0,0 mm W-SW 256 8,0 km/h (2 Bft)
22.04.2017 10:35 10,3 C 56 % 1023,3 hPa 0,0 mm W 263 9,7 km/h (2 Bft)
22.04.2017 10:40 10,4 C 55 % 1023,3 hPa 0,0 mm W 277 12,9 km/h (3 Bft)
22.04.2017 10:45 10,4 C 55 % 1023,3 hPa 0,0 mm W 277 12,9 km/h (3 Bft)
22.04.2017 10:50 10,4 C 55 % 1023,2 hPa 0,0 mm W-SW 256 16,1 km/h (3 Bft)
22.04.2017 10:55 10,6 C 54 % 1023,3 hPa 0,0 mm W-NW 301 20,9 km/h (4 Bft)
22.04.2017 11:00 10,7 C 54 % 1023,2 hPa 0,0 mm W-SW 255 14,5 km/h (3 Bft)
22.04.2017 11:05 10,7 C 54 % 1023,2 hPa 0,0 mm W 273 16,1 km/h (3 Bft)
22.04.2017 11:10 10,8 C 56 % 1023,2 hPa 0,0 mm W 265 11,3 km/h (2 Bft)
22.04.2017 11:15 10,8 C 57 % 1023,1 hPa 0,0 mm W 267 11,3 km/h (2 Bft)
22.04.2017 11:20 10,8 C 56 % 1023,1 hPa 0,0 mm W 260 11,3 km/h (2 Bft)
22.04.2017 11:25 10,7 C 57 % 1023,0 hPa 0,0 mm W 269 14,5 km/h (3 Bft)
22.04.2017 11:30 10,9 C 58 % 1022,9 hPa 0,0 mm W-SW 257 8,0 km/h (2 Bft)
22.04.2017 11:35 11,1 C 59 % 1022,8 hPa 0,0 mm W-NW 284 8,0 km/h (2 Bft)
22.04.2017 11:40 11,3 C 58 % 1022,7 hPa 0,0 mm W-SW 241 11,3 km/h (2 Bft)
22.04.2017 11:45 11,6 C 58 % 1022,7 hPa 0,0 mm W 260 8,0 km/h (2 Bft)
22.04.2017 11:50 11,8 C 57 % 1022,7 hPa 0,0 mm W 275 9,7 km/h (2 Bft)
22.04.2017 11:55 12,0 C 56 % 1022,6 hPa 0,0 mm W-SW 247 11,3 km/h (2 Bft)
22.04.2017 12:00 12,1 C 55 % 1022,4 hPa 0,0 mm W-SW 252 16,1 km/h (3 Bft)
22.04.2017 12:05 12,1 C 53 % 1022,5 hPa 0,0 mm W 264 24,1 km/h (4 Bft)
22.04.2017 12:10 12,0 C 53 % 1022,4 hPa 0,0 mm W-SW 258 24,1 km/h (4 Bft)
22.04.2017 12:15 12,1 C 54 % 1022,3 hPa 0,0 mm W-SW 248 24,1 km/h (4 Bft)
22.04.2017 12:20 12,4 C 54 % 1022,2 hPa 0,0 mm SW 232 19,3 km/h (3 Bft)
22.04.2017 12:25 12,6 C 51 % 1022,1 hPa 0,0 mm W 266 25,7 km/h (4 Bft)
22.04.2017 12:30 12,3 C 52 % 1022,1 hPa 0,0 mm W 270 22,5 km/h (4 Bft)
22.04.2017 12:35 12,3 C 52 % 1022,0 hPa 0,0 mm W-SW 242 25,7 km/h (4 Bft)
22.04.2017 12:40 12,2 C 52 % 1022,0 hPa 0,0 mm W 279 17,7 km/h (3 Bft)
22.04.2017 12:45 11,9 C 54 % 1022,1 hPa 0,0 mm W-SW 250 19,3 km/h (3 Bft)
22.04.2017 12:50 11,6 C 54 % 1022,1 hPa 0,0 mm W-SW 256 22,5 km/h (4 Bft)
22.04.2017 12:55 11,3 C 56 % 1022,1 hPa 0,0 mm SW 236 14,5 km/h (3 Bft)
22.04.2017 13:00 11,1 C 56 % 1022,0 hPa 0,0 mm S-SW 200 16,1 km/h (3 Bft)
22.04.2017 13:05 10,9 C 58 % 1022,1 hPa 0,0 mm W-SW 257 19,3 km/h (3 Bft)
22.04.2017 13:10 10,9 C 60 % 1022,1 hPa 0,0 mm NW 308 14,5 km/h (3 Bft)
22.04.2017 13:15 11,1 C 62 % 1022,0 hPa 0,0 mm W 281 12,9 km/h (3 Bft)
22.04.2017 13:20 11,3 C 60 % 1022,0 hPa 0,0 mm W-SW 253 11,3 km/h (2 Bft)
22.04.2017 13:25 11,2 C 60 % 1022,0 hPa 0,0 mm NW 308 14,5 km/h (3 Bft)
22.04.2017 13:30 11,2 C 60 % 1021,8 hPa 0,0 mm W 261 11,3 km/h (2 Bft)
22.04.2017 13:35 11,1 C 61 % 1021,8 hPa 0,0 mm W-SW 250 12,9 km/h (3 Bft)
22.04.2017 13:40 11,1 C 62 % 1021,8 hPa 0,0 mm W-SW 257 9,7 km/h (2 Bft)
22.04.2017 13:45 11,2 C 63 % 1021,7 hPa 0,0 mm W-SW 247 11,3 km/h (2 Bft)
22.04.2017 13:50 11,1 C 62 % 1021,7 hPa 0,0 mm W 263 14,5 km/h (3 Bft)
22.04.2017 13:55 11,2 C 63 % 1021,7 hPa 0,0 mm W-NW 291 19,3 km/h (3 Bft)
22.04.2017 14:00 11,2 C 64 % 1021,6 hPa 0,0 mm W-SW 257 17,7 km/h (3 Bft)
22.04.2017 14:05 11,2 C 66 % 1021,5 hPa 0,0 mm W-NW 291 9,7 km/h (2 Bft)
22.04.2017 14:10 11,3 C 66 % 1021,6 hPa 0,0 mm W 271 11,3 km/h (2 Bft)
22.04.2017 14:15 11,2 C 66 % 1021,4 hPa 0,0 mm W 279 14,5 km/h (3 Bft)
22.04.2017 14:20 11,0 C 66 % 1021,4 hPa 0,0 mm W-SW 250 24,1 km/h (4 Bft)
22.04.2017 14:25 10,8 C 66 % 1021,4 hPa 0,0 mm W 278 19,3 km/h (3 Bft)
22.04.2017 14:30 10,6 C 67 % 1021,3 hPa 0,0 mm W 259 20,9 km/h (4 Bft)
22.04.2017 14:35 10,6 C 67 % 1021,4 hPa 0,0 mm W-SW 243 11,3 km/h (2 Bft)
22.04.2017 14:40 10,4 C 67 % 1021,3 hPa 0,0 mm NW 310 16,1 km/h (3 Bft)
22.04.2017 14:45 10,4 C 68 % 1021,2 hPa 0,0 mm W 269 14,5 km/h (3 Bft)
22.04.2017 14:50 10,5 C 69 % 1021,1 hPa 0,0 mm W-NW 288 11,3 km/h (2 Bft)
22.04.2017 14:55 10,9 C 68 % 1021,2 hPa 0,0 mm W 265 14,5 km/h (3 Bft)
22.04.2017 15:00 11,3 C 67 % 1021,1 hPa 0,0 mm W 280 12,9 km/h (3 Bft)
22.04.2017 15:05 11,5 C 67 % 1021,0 hPa 0,0 mm W 275 17,7 km/h (3 Bft)
22.04.2017 15:10 11,6 C 64 % 1020,9 hPa 0,0 mm W-SW 245 16,1 km/h (3 Bft)
22.04.2017 15:15 11,3 C 62 % 1021,0 hPa 0,0 mm W 265 25,7 km/h (4 Bft)
22.04.2017 15:20 11,0 C 62 % 1020,9 hPa 0,0 mm W 279 30,6 km/h (5 Bft)
22.04.2017 15:25 11,0 C 63 % 1020,9 hPa 0,0 mm NW 306 19,3 km/h (3 Bft)
22.04.2017 15:30 11,1 C 62 % 1020,9 hPa 0,0 mm W-SW 245 20,9 km/h (4 Bft)
22.04.2017 15:35 11,0 C 63 % 1020,8 hPa 0,0 mm W-SW 257 24,1 km/h (4 Bft)
22.04.2017 15:40 11,2 C 63 % 1020,8 hPa 0,0 mm W-NW 286 17,7 km/h (3 Bft)
22.04.2017 15:45 11,1 C 63 % 1020,7 hPa 0,0 mm W 279 14,5 km/h (3 Bft)
22.04.2017 15:50 10,9 C 64 % 1020,6 hPa 0,0 mm W-SW 255 19,3 km/h (3 Bft)
22.04.2017 15:55 10,9 C 64 % 1020,7 hPa 0,0 mm W 263 22,5 km/h (4 Bft)
22.04.2017 16:00 10,8 C 65 % 1020,6 hPa 0,0 mm W-SW 246 17,7 km/h (3 Bft)
22.04.2017 16:05 10,6 C 67 % 1020,5 hPa 0,0 mm W 260 17,7 km/h (3 Bft)
22.04.2017 16:10 10,5 C 68 % 1020,4 hPa 0,0 mm W 263 16,1 km/h (3 Bft)
22.04.2017 16:15 10,4 C 70 % 1020,5 hPa 0,0 mm W 276 16,1 km/h (3 Bft)
22.04.2017 16:20 10,3 C 68 % 1020,3 hPa 0,0 mm W-SW 252 16,1 km/h (3 Bft)
22.04.2017 16:25 10,3 C 67 % 1020,3 hPa 0,0 mm W-NW 283 22,5 km/h (4 Bft)
22.04.2017 16:30 10,3 C 66 % 1020,2 hPa 0,0 mm W-NW 284 19,3 km/h (3 Bft)
22.04.2017 16:35 10,3 C 65 % 1020,2 hPa 0,0 mm W 262 17,7 km/h (3 Bft)
22.04.2017 16:40 10,3 C 64 % 1020,1 hPa 0,0 mm W 262 25,7 km/h (4 Bft)
22.04.2017 16:45 10,4 C 64 % 1020,1 hPa 0,0 mm W 265 24,1 km/h (4 Bft)
22.04.2017 16:50 10,4 C 64 % 1020,0 hPa 0,0 mm W 261 20,9 km/h (4 Bft)
22.04.2017 16:55 10,4 C 64 % 1020,0 hPa 0,0 mm W-SW 257 24,1 km/h (4 Bft)
22.04.2017 17:00 10,4 C 63 % 1020,0 hPa 0,0 mm W 261 22,5 km/h (4 Bft)
22.04.2017 17:05 10,4 C 63 % 1020,0 hPa 0,0 mm W 277 19,3 km/h (3 Bft)
22.04.2017 17:10 10,3 C 64 % 1020,1 hPa 0,0 mm W-NW 292 20,9 km/h (4 Bft)
22.04.2017 17:15 10,3 C 64 % 1020,1 hPa 0,0 mm W 272 20,9 km/h (4 Bft)
22.04.2017 17:20 10,3 C 65 % 1020,1 hPa 0,0 mm W-SW 254 17,7 km/h (3 Bft)
22.04.2017 17:25 10,1 C 68 % 1020,1 hPa 0,0 mm W 261 17,7 km/h (3 Bft)
22.04.2017 17:30 10,0 C 69 % 1020,1 hPa 0,0 mm W-SW 248 22,5 km/h (4 Bft)
22.04.2017 17:35 9,8 C 70 % 1020,1 hPa 0,0 mm W-SW 257 14,5 km/h (3 Bft)
22.04.2017 17:40 9,7 C 71 % 1020,1 hPa 0,0 mm W-NW 292 17,7 km/h (3 Bft)
22.04.2017 17:45 9,6 C 72 % 1020,1 hPa 0,0 mm W-NW 296 17,7 km/h (3 Bft)
22.04.2017 17:50 9,6 C 72 % 1020,0 hPa 0,0 mm W 266 19,3 km/h (3 Bft)
22.04.2017 17:55 9,5 C 73 % 1020,0 hPa 0,0 mm W 266 19,3 km/h (3 Bft)
22.04.2017 18:00 9,4 C 73 % 1020,0 hPa 0,0 mm SW 231 17,7 km/h (3 Bft)
22.04.2017 18:05 9,3 C 74 % 1020,1 hPa 0,0 mm W-NW 285 20,9 km/h (4 Bft)
22.04.2017 18:10 9,0 C 76 % 1020,1 hPa 0,2 mm W 275 22,5 km/h (4 Bft)
22.04.2017 18:15 8,8 C 78 % 1020,2 hPa 0,2 mm W 269 22,5 km/h (4 Bft)
22.04.2017 18:20 8,6 C 80 % 1020,1 hPa 0,0 mm W-SW 247 11,3 km/h (2 Bft)
22.04.2017 18:25 8,4 C 81 % 1020,1 hPa 0,0 mm W 261 9,7 km/h (2 Bft)
22.04.2017 18:30 8,3 C 82 % 1020,2 hPa 0,0 mm W 261 4,8 km/h (1 Bft)
22.04.2017 18:35 8,2 C 84 % 1020,1 hPa 0,0 mm W 263 4,8 km/h (1 Bft)
22.04.2017 18:40 8,1 C 85 % 1020,2 hPa 0,0 mm W 267 6,4 km/h (2 Bft)
22.04.2017 18:45 8,0 C 85 % 1020,2 hPa 0,2 mm W 267 8,0 km/h (2 Bft)
22.04.2017 18:50 7,9 C 87 % 1020,1 hPa 0,0 mm W 267 1,6 km/h (1 Bft)
22.04.2017 18:55 7,9 C 87 % 1020,2 hPa 0,0 mm W 267 3,2 km/h (1 Bft)
22.04.2017 19:00 7,8 C 88 % 1020,2 hPa 0,2 mm W 264 6,4 km/h (2 Bft)
22.04.2017 19:05 7,8 C 88 % 1020,2 hPa 0,0 mm W-NW 285 6,4 km/h (2 Bft)
22.04.2017 19:10 7,7 C 88 % 1020,4 hPa 0,0 mm W-SW 253 6,4 km/h (2 Bft)
22.04.2017 19:15 7,6 C 88 % 1020,4 hPa 0,2 mm W 266 9,7 km/h (2 Bft)
22.04.2017 19:20 7,4 C 88 % 1020,4 hPa 0,2 mm W 275 9,7 km/h (2 Bft)
22.04.2017 19:25 7,3 C 89 % 1020,4 hPa 0,2 mm W-SW 257 12,9 km/h (3 Bft)
22.04.2017 19:30 7,2 C 89 % 1020,5 hPa 0,2 mm W-NW 284 12,9 km/h (3 Bft)
22.04.2017 19:35 7,2 C 90 % 1020,4 hPa 0,4 mm W 279 12,9 km/h (3 Bft)
22.04.2017 19:40 7,0 C 90 % 1020,4 hPa 0,2 mm W 264 12,9 km/h (3 Bft)
22.04.2017 19:45 6,9 C 90 % 1020,4 hPa 0,2 mm W 272 14,5 km/h (3 Bft)
22.04.2017 19:50 6,9 C 90 % 1020,5 hPa 0,2 mm W 261 11,3 km/h (2 Bft)
22.04.2017 19:55 6,9 C 91 % 1020,5 hPa 0,2 mm W 276 14,5 km/h (3 Bft)
22.04.2017 20:00 6,9 C 91 % 1020,5 hPa 0,2 mm W 273 11,3 km/h (2 Bft)
22.04.2017 20:05 6,9 C 91 % 1020,5 hPa 0,2 mm W 268 9,7 km/h (2 Bft)
22.04.2017 20:10 6,8 C 91 % 1020,5 hPa 0,2 mm W 271 9,7 km/h (2 Bft)
22.04.2017 20:15 6,8 C 91 % 1020,5 hPa 0,2 mm W 278 14,5 km/h (3 Bft)
22.04.2017 20:20 6,8 C 92 % 1020,7 hPa 0,2 mm W 261 16,1 km/h (3 Bft)
22.04.2017 20:25 6,7 C 91 % 1020,6 hPa 0,2 mm W-NW 285 11,3 km/h (2 Bft)
22.04.2017 20:30 6,6 C 92 % 1020,7 hPa 0,4 mm W 270 11,3 km/h (2 Bft)
22.04.2017 20:35 6,6 C 92 % 1020,8 hPa 0,2 mm W 265 12,9 km/h (3 Bft)
22.04.2017 20:40 6,6 C 92 % 1020,8 hPa 0,4 mm W-NW 295 14,5 km/h (3 Bft)
22.04.2017 20:45 6,6 C 92 % 1020,8 hPa 0,4 mm W 263 9,7 km/h (2 Bft)
22.04.2017 20:50 6,6 C 92 % 1020,8 hPa 0,4 mm W-NW 285 6,4 km/h (2 Bft)
22.04.2017 20:55 6,6 C 92 % 1021,0 hPa 0,2 mm W-NW 291 11,3 km/h (2 Bft)
22.04.2017 21:00 6,6 C 92 % 1021,1 hPa 0,4 mm W 269 14,5 km/h (3 Bft)
22.04.2017 21:05 6,2 C 92 % 1021,2 hPa 0,2 mm W-NW 296 24,1 km/h (4 Bft)
22.04.2017 21:10 5,9 C 92 % 1021,3 hPa 0,2 mm W-SW 253 11,3 km/h (2 Bft)
22.04.2017 21:15 5,8 C 92 % 1021,5 hPa 0,2 mm W-NW 283 16,1 km/h (3 Bft)
22.04.2017 21:20 5,7 C 92 % 1021,5 hPa 0,2 mm W-SW 244 17,7 km/h (3 Bft)
22.04.2017 21:25 5,5 C 92 % 1021,5 hPa 0,2 mm W 260 17,7 km/h (3 Bft)
22.04.2017 21:30 5,4 C 92 % 1021,6 hPa 0,2 mm W 262 14,5 km/h (3 Bft)
22.04.2017 21:35 5,4 C 92 % 1021,7 hPa 0,4 mm W 274 17,7 km/h (3 Bft)
22.04.2017 21:40 5,3 C 92 % 1021,7 hPa 0,4 mm W 261 14,5 km/h (3 Bft)
22.04.2017 21:45 5,2 C 92 % 1021,6 hPa 0,2 mm W 265 12,9 km/h (3 Bft)
22.04.2017 21:50 5,1 C 92 % 1021,7 hPa 0,2 mm W 269 16,1 km/h (3 Bft)
22.04.2017 21:55 5,1 C 92 % 1021,6 hPa 0,2 mm W-NW 282 12,9 km/h (3 Bft)
22.04.2017 22:00 5,0 C 92 % 1021,5 hPa 0,2 mm W 266 12,9 km/h (3 Bft)
22.04.2017 22:05 5,0 C 92 % 1021,6 hPa 0,4 mm W-SW 254 17,7 km/h (3 Bft)
22.04.2017 22:10 5,0 C 93 % 1021,8 hPa 0,0 mm W 269 12,9 km/h (3 Bft)
22.04.2017 22:15 4,9 C 93 % 1021,8 hPa 0,4 mm W 265 12,9 km/h (3 Bft)
22.04.2017 22:20 4,9 C 93 % 1021,8 hPa 0,2 mm W 260 16,1 km/h (3 Bft)
22.04.2017 22:25 4,8 C 93 % 1021,7 hPa 0,2 mm W 265 8,0 km/h (2 Bft)
22.04.2017 22:30 4,8 C 93 % 1021,8 hPa 0,2 mm W-NW 283 6,4 km/h (2 Bft)
22.04.2017 22:35 4,7 C 93 % 1021,8 hPa 0,2 mm W 268 14,5 km/h (3 Bft)
22.04.2017 22:40 4,6 C 93 % 1021,9 hPa 0,2 mm W 274 9,7 km/h (2 Bft)
22.04.2017 22:45 4,5 C 93 % 1021,9 hPa 0,2 mm W 271 8,0 km/h (2 Bft)
22.04.2017 22:50 4,4 C 93 % 1021,9 hPa 0,2 mm W 278 6,4 km/h (2 Bft)
22.04.2017 22:55 4,3 C 93 % 1021,9 hPa 0,2 mm W-NW 283 8,0 km/h (2 Bft)
22.04.2017 23:00 4,3 C 93 % 1021,8 hPa 0,0 mm W 265 9,7 km/h (2 Bft)
22.04.2017 23:05 4,2 C 93 % 1021,7 hPa 0,2 mm W 267 11,3 km/h (2 Bft)
22.04.2017 23:10 4,1 C 93 % 1021,7 hPa 0,0 mm W-NW 290 9,7 km/h (2 Bft)
22.04.2017 23:15 4,2 C 93 % 1021,7 hPa 0,2 mm W 265 6,4 km/h (2 Bft)
22.04.2017 23:20 4,1 C 93 % 1021,8 hPa 0,0 mm W 265 8,0 km/h (2 Bft)
22.04.2017 23:25 4,1 C 93 % 1021,8 hPa 0,2 mm W 262 11,3 km/h (2 Bft)
22.04.2017 23:30 4,0 C 93 % 1021,6 hPa 0,2 mm NW 323 11,3 km/h (2 Bft)
22.04.2017 23:35 3,9 C 93 % 1021,8 hPa 0,0 mm W 279 14,5 km/h (3 Bft)
22.04.2017 23:40 3,9 C 93 % 1021,9 hPa 0,2 mm W-SW 249 14,5 km/h (3 Bft)
22.04.2017 23:45 3,8 C 93 % 1021,9 hPa 0,2 mm W 281 12,9 km/h (3 Bft)
22.04.2017 23:50 3,7 C 93 % 1021,9 hPa 0,2 mm W 265 11,3 km/h (2 Bft)
22.04.2017 23:55 3,6 C 93 % 1021,9 hPa 0,2 mm W 271 8,0 km/h (2 Bft)
_ Min-Zeit 00:45 12:25 16:50 - - - 00:15
Minimum _ -0,5 C 51 % 1020,0 hPa - - - 0,0 km/h (0 Bft)
_ Max-Zeit 12:25 06:50 00:00 19:35 - - 15:20
Maximum _ 12,6 C 93 % 1028,6 hPa 0,4 mm - - 30,6 km/h
W (5 Bft)
Durchschnitt _ 6,1 C 80 % 1023,3 hPa #13,2 mm W - 9,1 km/h (2 Bft)